createdAt,value
2022-09-23T00:00:49.508Z,7.78
2022-09-23T00:03:17.354Z,7.88
2022-09-23T00:05:44.859Z,8.63
2022-09-23T00:08:12.820Z,8.73
2022-09-23T00:10:40.858Z,8.57
2022-09-23T00:13:08.862Z,8.60
2022-09-23T00:15:40.419Z,8.77
2022-09-23T00:18:08.017Z,7.40
2022-09-23T00:20:36.135Z,8.98
2022-09-23T00:23:03.884Z,8.70
2022-09-23T00:25:31.309Z,8.65
2022-09-23T00:27:59.594Z,8.23
2022-09-23T00:30:27.206Z,7.60
2022-09-23T00:32:56.724Z,7.50
2022-09-23T00:35:24.216Z,8.45
2022-09-23T00:37:51.718Z,7.97
2022-09-23T00:40:19.254Z,7.40
2022-09-23T00:42:48.379Z,8.48
2022-09-23T00:45:16.273Z,7.35
2022-09-23T00:47:47.945Z,8.15
2022-09-23T00:50:19.762Z,7.18
2022-09-23T00:52:47.460Z,7.50
2022-09-23T00:55:17.488Z,7.63
2022-09-23T00:57:46.259Z,7.18
2022-09-23T01:00:14.011Z,6.70
2022-09-23T01:02:41.553Z,7.15
2022-09-23T01:05:09.444Z,7.85
2022-09-23T01:07:38.234Z,8.15
2022-09-23T01:10:06.529Z,7.78
2022-09-23T01:12:51.750Z,8.10
2022-09-23T01:15:20.714Z,8.00
2022-09-23T01:17:51.139Z,7.60
2022-09-23T01:20:37.979Z,7.93
2022-09-23T01:23:13.997Z,7.80
2022-09-23T01:25:52.044Z,8.30
2022-09-23T01:28:29.030Z,8.02
2022-09-23T01:30:59.442Z,8.38
2022-09-23T01:33:31.791Z,7.82
2022-09-23T01:36:05.585Z,8.85
2022-09-23T01:38:36.424Z,8.00
2022-09-23T01:41:06.076Z,8.20
2022-09-23T01:43:37.376Z,8.75
2022-09-23T01:46:08.366Z,8.48
2022-09-23T01:48:38.381Z,7.88
2022-09-23T01:51:07.919Z,8.23
2022-09-23T01:53:39.184Z,7.88
2022-09-23T01:56:10.177Z,7.75
2022-09-23T01:58:41.081Z,7.55
2022-09-23T02:01:14.711Z,8.07
2022-09-23T02:03:45.059Z,8.82
2022-09-23T02:06:15.218Z,8.38
2022-09-23T02:08:44.891Z,8.32
2022-09-23T02:11:15.232Z,7.93
2022-09-23T02:13:46.287Z,8.48
2022-09-23T02:16:17.630Z,7.80
2022-09-23T02:21:15.343Z,8.52
2022-09-23T02:23:43.960Z,8.15
2022-09-23T02:26:14.902Z,8.45
2022-09-23T02:28:45.335Z,8.45
2022-09-23T02:31:17.224Z,8.88
2022-09-23T02:33:52.038Z,8.13
2022-09-23T02:36:21.656Z,8.43
2022-09-23T02:38:51.107Z,7.75
2022-09-23T02:41:22.059Z,8.95
2022-09-23T02:43:52.576Z,9.20
2022-09-23T02:46:20.264Z,8.47
2022-09-23T02:48:50.285Z,7.50
2022-09-23T02:51:17.724Z,8.23
2022-09-23T02:53:45.785Z,8.07
2022-09-23T02:56:15.448Z,9.07
2022-09-23T02:58:43.025Z,7.88
2022-09-23T03:01:16.323Z,9.00
2022-09-23T03:03:47.385Z,8.00
2022-09-23T03:06:25.111Z,8.85
2022-09-23T03:08:55.784Z,9.13
2022-09-23T03:11:24.619Z,8.80
2022-09-23T03:13:55.998Z,8.55
2022-09-23T03:16:29.240Z,8.93
2022-09-23T03:18:58.693Z,8.77
2022-09-23T03:21:30.485Z,8.80
2022-09-23T03:23:59.778Z,8.90
2022-09-23T03:26:29.485Z,8.35
2022-09-23T03:28:57.002Z,9.30
2022-09-23T03:31:24.531Z,9.07
2022-09-23T03:33:53.326Z,8.60
2022-09-23T03:36:40.860Z,8.85
2022-09-23T03:39:11.601Z,9.40
2022-09-23T03:41:42.181Z,9.13
2022-09-23T03:44:10.516Z,9.33
2022-09-23T03:46:38.122Z,9.30
2022-09-23T03:49:09.489Z,8.95
2022-09-23T03:51:38.045Z,9.05
2022-09-23T03:54:07.156Z,9.15
2022-09-23T03:56:36.760Z,9.13
2022-09-23T03:59:04.209Z,9.82
2022-09-23T04:01:31.593Z,9.50
2022-09-23T04:04:00.008Z,9.18
2022-09-23T04:06:27.458Z,9.02
2022-09-23T04:08:54.885Z,8.68
2022-09-23T04:11:22.322Z,10.23
2022-09-23T04:13:51.105Z,9.52
2022-09-23T04:16:18.789Z,8.98
2022-09-23T04:18:46.286Z,9.00
2022-09-23T04:21:13.778Z,8.75
2022-09-23T04:23:41.247Z,9.45
2022-09-23T04:26:08.716Z,8.80
2022-09-23T04:28:36.209Z,9.20
2022-09-23T04:31:06.475Z,9.40
2022-09-23T04:33:34.424Z,9.18
2022-09-23T04:36:01.947Z,8.93
2022-09-23T04:38:29.404Z,9.38
2022-09-23T04:40:56.856Z,9.15
2022-09-23T04:43:24.282Z,9.93
2022-09-23T04:45:58.628Z,8.75
2022-09-23T04:48:27.445Z,9.43
2022-09-23T04:50:54.875Z,9.30
2022-09-23T04:53:22.463Z,9.25
2022-09-23T04:55:51.693Z,9.27
2022-09-23T04:58:19.094Z,9.63
2022-09-23T05:00:46.942Z,9.07
2022-09-23T05:03:15.026Z,9.45
2022-09-23T05:05:43.813Z,9.65
2022-09-23T05:08:11.207Z,9.13
2022-09-23T05:10:38.626Z,9.13
2022-09-23T05:13:06.066Z,9.90
2022-09-23T05:15:33.746Z,9.55
2022-09-23T05:18:02.442Z,9.63
2022-09-23T05:20:29.874Z,8.77
2022-09-23T05:22:59.013Z,9.73
2022-09-23T05:25:26.443Z,9.68
2022-09-23T05:27:53.881Z,9.10
2022-09-23T05:30:21.330Z,9.95
2022-09-23T05:32:48.750Z,9.35
2022-09-23T05:35:16.268Z,9.85
2022-09-23T05:37:43.750Z,9.00
2022-09-23T05:40:12.737Z,9.52
2022-09-23T05:42:40.233Z,10.27
2022-09-23T05:45:08.500Z,9.05
2022-09-23T05:47:35.907Z,9.05
2022-09-23T05:50:03.428Z,10.15
2022-09-23T05:52:31.431Z,9.30
2022-09-23T05:54:58.893Z,8.65
2022-09-23T05:57:27.663Z,10.07
2022-09-23T05:59:55.057Z,9.05
2022-09-23T06:02:22.503Z,8.88
2022-09-23T06:04:49.904Z,8.35
2022-09-23T06:07:17.298Z,9.05
2022-09-23T06:09:45.390Z,8.50
2022-09-23T06:12:14.022Z,7.95
2022-09-23T06:14:42.968Z,9.13
2022-09-23T06:17:10.428Z,8.45
2022-09-23T06:19:37.904Z,8.70
2022-09-23T06:22:05.334Z,8.63
2022-09-23T06:24:32.778Z,7.57
2022-09-23T06:27:00.918Z,8.65
2022-09-23T06:29:29.851Z,8.40
2022-09-23T06:31:59.581Z,8.13
2022-09-23T06:34:27.122Z,7.95
2022-09-23T06:36:55.504Z,8.25
2022-09-23T06:39:23.016Z,8.38
2022-09-23T06:41:50.503Z,8.70
2022-09-23T06:44:17.879Z,8.38
2022-09-23T06:46:45.367Z,8.10
2022-09-23T06:49:14.270Z,8.20
2022-09-23T06:51:42.056Z,8.32
2022-09-23T06:54:09.638Z,8.75
2022-09-23T06:56:39.393Z,9.00
2022-09-23T06:59:07.539Z,8.25
2022-09-23T07:01:35.556Z,7.95
2022-09-23T07:04:03.160Z,8.45
2022-09-23T07:06:31.938Z,8.20
2022-09-23T07:09:00.847Z,8.18
2022-09-23T07:11:28.226Z,8.00
2022-09-23T07:13:55.634Z,7.80
2022-09-23T07:16:23.154Z,8.00
2022-09-23T07:18:51.965Z,7.60
2022-09-23T07:21:19.897Z,7.35
2022-09-23T07:23:50.199Z,8.25
2022-09-23T07:26:21.387Z,8.07
2022-09-23T07:28:48.882Z,8.55
2022-09-23T07:31:33.409Z,8.52
2022-09-23T07:34:17.650Z,8.02
2022-09-23T07:36:46.513Z,8.63
2022-09-23T07:39:15.572Z,8.75
2022-09-23T07:41:44.337Z,8.13
2022-09-23T07:44:12.545Z,8.40
2022-09-23T07:46:40.118Z,8.23
2022-09-23T07:49:07.951Z,8.25
2022-09-23T07:51:36.992Z,8.15
2022-09-23T07:54:07.215Z,7.70
2022-09-23T07:56:36.309Z,7.90
2022-09-23T07:59:04.451Z,7.85
2022-09-23T08:01:33.719Z,8.60
2022-09-23T08:04:02.474Z,8.05
2022-09-23T08:06:29.938Z,8.48
2022-09-23T08:08:58.468Z,8.63
2022-09-23T08:11:26.538Z,7.95
2022-09-23T08:13:55.961Z,8.70
2022-09-23T08:16:23.544Z,8.45
2022-09-23T08:18:51.133Z,8.02
2022-09-23T08:21:19.991Z,8.25
2022-09-23T08:23:47.533Z,8.52
2022-09-23T08:26:20.996Z,8.70
2022-09-23T08:28:49.578Z,8.05
2022-09-23T08:31:18.519Z,8.38
2022-09-23T08:33:46.402Z,8.10
2022-09-23T08:36:14.167Z,7.78
2022-09-23T08:38:41.640Z,7.97
2022-09-23T08:41:13.909Z,8.32
2022-09-23T08:43:46.402Z,7.20
2022-09-23T08:46:16.726Z,7.88
2022-09-23T08:48:47.138Z,8.20
2022-09-23T08:51:15.864Z,7.63
2022-09-23T08:53:45.452Z,7.38
2022-09-23T08:56:14.136Z,7.63
2022-09-23T08:58:49.328Z,8.15
2022-09-23T09:01:20.285Z,8.35
2022-09-23T09:03:51.806Z,8.25
2022-09-23T09:06:21.636Z,8.75
2022-09-23T09:08:53.943Z,8.27
2022-09-23T09:11:23.557Z,8.05
2022-09-23T09:13:54.335Z,7.68
2022-09-23T09:16:55.405Z,7.85
2022-09-23T09:19:20.103Z,7.25
2022-09-23T09:21:48.841Z,8.18
2022-09-23T09:24:18.621Z,7.55
2022-09-23T09:26:46.107Z,7.70
2022-09-23T09:32:14.166Z,7.97
2022-09-23T09:34:46.170Z,7.15
2022-09-23T09:37:16.617Z,8.02
2022-09-23T09:39:44.075Z,7.70
2022-09-23T09:42:14.679Z,7.93
2022-09-23T09:44:44.852Z,8.43
2022-09-23T09:47:16.789Z,7.43
2022-09-23T09:49:49.788Z,7.88
2022-09-23T09:52:22.232Z,7.30
2022-09-23T09:54:50.841Z,7.75
2022-09-23T09:57:20.175Z,7.38
2022-09-23T09:59:47.619Z,7.00
2022-09-23T10:02:23.159Z,7.28
2022-09-23T10:04:57.139Z,7.38
2022-09-23T10:07:28.316Z,7.63
2022-09-23T10:12:26.177Z,7.32
2022-09-23T10:14:57.009Z,7.05
2022-09-23T10:17:25.258Z,12.35
2022-09-23T10:20:00.204Z,7.43
2022-09-23T10:22:29.874Z,7.80
2022-09-23T10:24:59.448Z,7.60
2022-09-23T10:27:28.010Z,8.43
2022-09-23T10:29:56.975Z,8.07
2022-09-23T10:32:26.847Z,7.70
2022-09-23T10:34:57.908Z,7.47
2022-09-23T10:37:28.897Z,7.72
2022-09-23T10:40:14.098Z,8.07
2022-09-23T10:43:05.185Z,7.80
2022-09-23T10:45:51.955Z,8.60
2022-09-23T10:48:26.373Z,8.25
2022-09-23T10:50:58.178Z,7.95
2022-09-23T10:53:34.150Z,7.95
2022-09-23T10:56:15.047Z,7.82
2022-09-23T10:58:58.093Z,7.25
2022-09-23T11:01:30.912Z,7.07
2022-09-23T11:04:16.471Z,6.63
2022-09-23T11:06:51.597Z,6.93
2022-09-23T11:09:24.611Z,6.93
2022-09-23T11:12:01.407Z,7.40
2022-09-23T11:14:44.860Z,6.90
2022-09-23T11:17:26.982Z,6.20
2022-09-23T11:20:13.084Z,6.20
2022-09-23T11:22:58.620Z,6.95
2022-09-23T11:25:31.645Z,6.53
2022-09-23T11:28:07.206Z,7.05
2022-09-23T11:30:40.725Z,6.57
2022-09-23T11:33:14.530Z,6.72
2022-09-23T11:35:45.792Z,7.10
2022-09-23T11:40:45.554Z,6.78
2022-09-23T11:43:18.377Z,6.85
2022-09-23T11:45:48.112Z,7.18
2022-09-23T11:48:17.882Z,7.00
2022-09-23T11:50:49.699Z,6.78
2022-09-23T11:53:21.515Z,7.05
2022-09-23T11:55:57.927Z,6.47
2022-09-23T11:58:29.162Z,6.85
2022-09-23T12:01:01.321Z,6.63
2022-09-23T12:03:43.462Z,6.80
2022-09-23T12:06:15.098Z,7.10
2022-09-23T12:08:43.522Z,6.43
2022-09-23T12:11:22.908Z,6.50
2022-09-23T12:13:52.988Z,6.43
2022-09-23T12:16:44.064Z,6.80
2022-09-23T12:19:18.818Z,7.00
2022-09-23T12:21:52.038Z,6.10
2022-09-23T12:24:27.589Z,6.65
2022-09-23T12:26:58.307Z,6.57
2022-09-23T12:32:00.099Z,6.57
2022-09-23T12:34:30.564Z,7.15
2022-09-23T12:37:02.929Z,6.50
2022-09-23T12:39:31.490Z,6.82
2022-09-23T12:42:00.139Z,7.20
2022-09-23T12:44:32.294Z,6.68
2022-09-23T12:47:14.674Z,6.22
2022-09-23T12:49:42.603Z,6.18
2022-09-23T12:52:13.993Z,5.93
2022-09-23T12:54:42.005Z,6.00
2022-09-23T12:57:12.669Z,6.32
2022-09-23T12:59:55.694Z,6.82
2022-09-23T13:02:34.489Z,6.28
2022-09-23T13:05:36.436Z,6.32
2022-09-23T13:08:05.783Z,6.57
2022-09-23T13:10:34.728Z,5.60
2022-09-23T13:13:03.224Z,5.45
2022-09-23T13:15:34.067Z,5.20
2022-09-23T13:18:20.399Z,5.05
2022-09-23T13:20:48.703Z,6.25
2022-09-23T13:23:25.152Z,6.65
2022-09-23T13:25:53.714Z,6.05
2022-09-23T13:28:29.068Z,6.15
2022-09-23T13:30:58.424Z,6.15
2022-09-23T13:33:30.642Z,5.10
2022-09-23T13:36:02.181Z,5.28
2022-09-23T13:38:31.886Z,5.32
2022-09-23T13:41:01.026Z,5.53
2022-09-23T13:43:31.697Z,5.15
2022-09-23T13:46:01.437Z,5.55
2022-09-23T13:48:29.496Z,4.82
2022-09-23T13:50:57.046Z,5.03
2022-09-23T13:53:25.512Z,4.97
2022-09-23T13:56:03.022Z,5.22
2022-09-23T13:58:31.029Z,5.15
2022-09-23T14:01:01.046Z,5.22
2022-09-23T14:03:36.115Z,4.78
2022-09-23T14:06:05.803Z,5.03
2022-09-23T14:08:33.554Z,5.07
2022-09-23T14:11:01.213Z,4.93
2022-09-23T14:13:30.056Z,5.40
2022-09-23T14:15:59.290Z,4.72
2022-09-23T14:18:39.173Z,5.18
2022-09-23T14:21:07.239Z,5.28
2022-09-23T14:23:34.694Z,5.13
2022-09-23T14:26:02.557Z,5.18
2022-09-23T14:28:30.104Z,4.38
2022-09-23T14:30:58.515Z,4.70
2022-09-23T14:33:28.205Z,4.80
2022-09-23T14:35:59.193Z,4.68
2022-09-23T14:38:45.860Z,5.10
2022-09-23T14:41:21.909Z,4.75
2022-09-23T14:43:50.753Z,4.80
2022-09-23T14:46:19.586Z,4.57
2022-09-23T14:48:54.381Z,4.70
2022-09-23T14:51:30.274Z,4.72
2022-09-23T14:54:17.728Z,4.78
2022-09-23T14:56:45.270Z,5.28
2022-09-23T14:59:24.848Z,5.07
2022-09-23T15:01:52.514Z,4.82
2022-09-23T15:04:30.352Z,5.25
2022-09-23T15:07:03.362Z,4.82
2022-09-23T15:09:32.229Z,4.78
2022-09-23T15:12:01.235Z,5.50
2022-09-23T15:14:39.253Z,5.07
2022-09-23T15:17:14.566Z,4.32
2022-09-23T15:19:42.270Z,5.20
2022-09-23T15:22:11.175Z,5.38
2022-09-23T15:24:40.961Z,4.97
2022-09-23T15:27:12.696Z,5.30
2022-09-23T15:29:40.460Z,5.18
2022-09-23T15:32:08.533Z,5.40
2022-09-23T15:34:36.963Z,5.70
2022-09-23T15:37:05.177Z,6.20
2022-09-23T15:39:36.268Z,5.55
2022-09-23T15:42:04.125Z,4.88
2022-09-23T15:44:31.711Z,4.47
2022-09-23T15:47:01.132Z,5.75
2022-09-23T15:49:30.296Z,5.35
2022-09-23T15:51:59.721Z,5.47
2022-09-23T15:54:27.503Z,6.00
2022-09-23T15:56:56.782Z,5.00
2022-09-23T15:59:26.172Z,5.43
2022-09-23T16:01:54.424Z,5.15
2022-09-23T16:04:21.960Z,6.15
2022-09-23T16:06:49.460Z,5.90
2022-09-23T16:09:16.948Z,6.15
2022-09-23T16:11:46.050Z,5.65
2022-09-23T16:14:15.991Z,6.53
2022-09-23T16:16:45.240Z,5.75
2022-09-23T16:19:13.197Z,5.70
2022-09-23T16:21:41.466Z,6.15
2022-09-23T16:24:13.615Z,6.22
2022-09-23T16:26:43.155Z,5.63
2022-09-23T16:29:11.395Z,5.80
2022-09-23T16:31:40.324Z,6.35
2022-09-23T16:34:08.556Z,6.10
2022-09-23T16:36:39.498Z,6.28
2022-09-23T16:39:07.968Z,6.53
2022-09-23T16:41:35.695Z,6.35
2022-09-23T16:44:04.774Z,6.90
2022-09-23T16:46:32.475Z,7.03
2022-09-23T16:49:01.456Z,6.55
2022-09-23T16:51:29.843Z,7.15
2022-09-23T16:53:58.353Z,6.57
2022-09-23T16:56:28.830Z,5.60
2022-09-23T16:58:57.172Z,6.22
2022-09-23T17:01:43.266Z,5.80
2022-09-23T17:04:15.702Z,6.47
2022-09-23T17:06:44.113Z,6.97
2022-09-23T17:09:12.087Z,6.70
2022-09-23T17:11:39.647Z,6.13
2022-09-23T17:14:07.401Z,7.55
2022-09-23T17:16:35.769Z,6.13
2022-09-23T17:19:07.315Z,6.20
2022-09-23T17:21:36.371Z,5.32
2022-09-23T17:24:04.764Z,6.95
2022-09-23T17:26:32.601Z,7.03
2022-09-23T17:29:01.518Z,7.07
2022-09-23T17:31:29.537Z,6.80
2022-09-23T17:33:57.144Z,6.20
2022-09-23T17:36:24.714Z,7.47
2022-09-23T17:38:54.395Z,6.50
2022-09-23T17:41:22.363Z,6.13
2022-09-23T17:43:54.556Z,6.35
2022-09-23T17:46:22.094Z,6.50
2022-09-23T17:48:55.456Z,6.75
2022-09-23T17:51:22.936Z,6.22
2022-09-23T17:53:50.899Z,6.90
2022-09-23T17:56:20.543Z,7.40
2022-09-23T17:58:48.894Z,7.10
2022-09-23T18:01:17.878Z,7.97
2022-09-23T18:03:49.569Z,7.68
2022-09-23T18:06:19.025Z,7.40
2022-09-23T18:08:48.029Z,8.02
2022-09-23T18:11:18.583Z,8.15
2022-09-23T18:13:54.498Z,7.95
2022-09-23T18:16:23.799Z,6.88
2022-09-23T18:18:52.612Z,7.72
2022-09-23T18:21:21.808Z,7.13
2022-09-23T18:23:54.534Z,9.20
2022-09-23T18:26:24.500Z,8.90
2022-09-23T18:28:57.029Z,8.52
2022-09-23T18:31:34.223Z,8.57
2022-09-23T18:34:12.400Z,8.52
2022-09-23T18:40:35.010Z,8.88
2022-09-23T18:43:03.207Z,10.27
2022-09-23T18:45:32.102Z,9.35
2022-09-23T18:48:17.107Z,8.88
2022-09-23T18:50:44.714Z,9.50
2022-09-23T18:53:12.161Z,10.15
2022-09-23T18:55:40.632Z,9.57
2022-09-23T18:58:08.144Z,9.32
2022-09-23T19:00:37.082Z,10.07
2022-09-23T19:03:04.862Z,10.63
2022-09-23T19:05:33.756Z,11.13
2022-09-23T19:08:01.194Z,12.02
2022-09-23T19:10:28.652Z,12.20
2022-09-23T19:12:56.090Z,13.80
2022-09-23T19:15:23.512Z,12.80
2022-09-23T19:17:52.960Z,13.63
2022-09-23T19:20:20.748Z,14.20
2022-09-23T19:22:48.340Z,14.75
2022-09-23T19:25:16.562Z,12.65
2022-09-23T19:27:44.036Z,12.75
2022-09-23T19:30:12.001Z,12.90
2022-09-23T19:32:40.316Z,13.60
2022-09-23T19:35:10.087Z,14.18
2022-09-23T19:37:38.222Z,15.00
2022-09-23T19:40:06.328Z,15.38
2022-09-23T19:42:35.224Z,14.95
2022-09-23T19:45:02.904Z,14.98
2022-09-23T19:47:30.999Z,15.32
2022-09-23T19:49:58.440Z,14.82
2022-09-23T19:52:27.270Z,16.23
2022-09-23T19:54:54.720Z,16.33
2022-09-23T19:57:22.124Z,16.45
2022-09-23T19:59:50.276Z,16.38
2022-09-23T20:02:17.724Z,17.10
2022-09-23T20:04:45.132Z,17.95
2022-09-23T20:07:12.532Z,16.25
2022-09-23T20:09:41.331Z,16.00
2022-09-23T20:12:08.855Z,18.83
2022-09-23T20:14:36.321Z,17.98
2022-09-23T20:17:03.742Z,19.42
2022-09-23T20:19:31.269Z,18.73
2022-09-23T20:22:15.941Z,19.48
2022-09-23T20:24:44.709Z,20.65
2022-09-23T20:27:11.249Z,21.27
2022-09-23T20:29:38.716Z,21.27
2022-09-23T20:32:06.189Z,21.98
2022-09-23T20:34:33.882Z,22.15
2022-09-23T20:37:01.319Z,21.60
2022-09-23T20:39:29.052Z,21.40
2022-09-23T20:41:58.297Z,23.08
2022-09-23T20:44:25.704Z,22.10
2022-09-23T20:46:53.169Z,23.02
2022-09-23T20:49:20.753Z,23.42
2022-09-23T20:51:48.777Z,23.35
2022-09-23T20:54:16.353Z,24.75
2022-09-23T20:56:43.765Z,23.85
2022-09-23T20:59:14.731Z,25.90
2022-09-23T21:01:42.602Z,23.33
2022-09-23T21:04:10.120Z,25.30
2022-09-23T21:06:38.788Z,24.60
2022-09-23T21:09:06.774Z,25.80
2022-09-23T21:11:34.193Z,25.50
2022-09-23T21:14:02.421Z,23.95
2022-09-23T21:16:31.265Z,24.73
2022-09-23T21:18:59.036Z,25.13
2022-09-23T21:21:26.888Z,26.75
2022-09-23T21:23:54.356Z,26.30
2022-09-23T21:26:23.067Z,27.88
2022-09-23T21:28:51.394Z,26.38
2022-09-23T21:31:23.682Z,28.00
2022-09-23T21:33:56.327Z,25.95
2022-09-23T21:36:24.625Z,27.38
2022-09-23T21:38:52.531Z,28.27
2022-09-23T21:41:20.431Z,27.50
2022-09-23T21:43:49.440Z,27.33
2022-09-23T21:46:20.017Z,29.73
2022-09-23T21:48:49.806Z,26.95
2022-09-23T21:51:20.156Z,30.13
2022-09-23T21:53:48.258Z,29.60
2022-09-23T21:56:20.539Z,34.28
2022-09-23T21:58:48.531Z,30.20
2022-09-23T22:01:17.049Z,29.92
2022-09-23T22:03:45.086Z,31.27
2022-09-23T22:06:13.724Z,31.35
2022-09-23T22:08:44.205Z,32.33
2022-09-23T22:11:33.190Z,31.05
2022-09-23T22:14:01.890Z,31.13
2022-09-23T22:16:29.667Z,31.80
2022-09-23T22:18:58.153Z,31.20
2022-09-23T22:21:26.690Z,33.55
2022-09-23T22:23:56.962Z,32.58
2022-09-23T22:26:24.711Z,33.83
2022-09-23T22:29:09.575Z,32.05
2022-09-23T22:31:54.457Z,34.95
2022-09-23T22:34:47.917Z,34.30
2022-09-23T22:37:11.303Z,36.13
2022-09-23T22:39:40.157Z,34.95
2022-09-23T22:42:08.168Z,37.45
2022-09-23T22:44:35.589Z,36.70
2022-09-23T22:47:03.372Z,36.63
2022-09-23T22:49:32.170Z,35.88
2022-09-23T22:51:59.605Z,36.42
2022-09-23T22:54:32.707Z,36.15
2022-09-23T22:57:04.289Z,34.33
2022-09-23T22:59:31.720Z,34.10
2022-09-23T23:02:00.160Z,33.22
2022-09-23T23:04:28.460Z,31.80
2022-09-23T23:06:55.914Z,30.33
2022-09-23T23:09:23.379Z,29.40
2022-09-23T23:11:50.871Z,29.00
2022-09-23T23:14:19.904Z,30.42
2022-09-23T23:16:47.672Z,27.58
2022-09-23T23:19:16.857Z,30.67
2022-09-23T23:21:45.251Z,28.50
2022-09-23T23:24:15.152Z,26.48
2022-09-23T23:26:42.740Z,27.83
2022-09-23T23:29:11.150Z,26.60
2022-09-23T23:31:40.350Z,26.10
2022-09-23T23:34:09.140Z,27.05
2022-09-23T23:36:36.603Z,26.55
2022-09-23T23:39:04.141Z,25.95
2022-09-23T23:41:31.599Z,27.27
2022-09-23T23:44:00.080Z,25.58
2022-09-23T23:46:28.399Z,26.70
2022-09-23T23:48:57.595Z,25.42
2022-09-23T23:51:26.231Z,24.95
2022-09-23T23:53:54.152Z,24.08
2022-09-23T23:56:22.437Z,25.13
2022-09-23T23:58:54.076Z,24.63
